createdAt,value
2022-11-27T00:00:14.401Z,67.00
2022-11-27T00:02:41.953Z,67.46
2022-11-27T00:05:10.257Z,67.02
2022-11-27T00:07:37.721Z,67.45
2022-11-27T00:10:06.614Z,67.29
2022-11-27T00:12:34.129Z,67.75
2022-11-27T00:15:01.610Z,67.92
2022-11-27T00:17:30.856Z,68.07
2022-11-27T00:19:58.339Z,68.12
2022-11-27T00:22:26.432Z,68.61
2022-11-27T00:24:53.898Z,68.41
2022-11-27T00:27:21.562Z,67.76
2022-11-27T00:29:49.047Z,67.84
2022-11-27T00:32:16.492Z,68.45
2022-11-27T00:34:45.367Z,68.33
2022-11-27T00:37:14.710Z,68.24
2022-11-27T00:39:42.175Z,68.14
2022-11-27T00:42:09.616Z,68.58
2022-11-27T00:44:37.391Z,68.91
2022-11-27T00:47:05.247Z,68.95
2022-11-27T00:49:33.084Z,68.97
2022-11-27T00:52:01.872Z,68.56
2022-11-27T00:54:29.319Z,68.80
2022-11-27T00:56:56.893Z,68.96
2022-11-27T00:59:24.339Z,68.95
2022-11-27T01:01:51.920Z,69.34
2022-11-27T01:04:19.652Z,68.91
2022-11-27T01:06:47.175Z,68.09
2022-11-27T01:09:16.537Z,68.89
2022-11-27T01:11:44.691Z,68.59
2022-11-27T01:14:15.024Z,69.09
2022-11-27T01:16:43.470Z,69.17
2022-11-27T01:19:12.182Z,68.83
2022-11-27T01:21:39.685Z,68.65
2022-11-27T01:24:08.439Z,67.68
2022-11-27T01:26:37.248Z,67.36
2022-11-27T01:29:04.766Z,66.84
2022-11-27T01:31:34.463Z,66.93
2022-11-27T01:34:05.135Z,68.08
2022-11-27T01:36:33.308Z,67.60
2022-11-27T01:39:01.652Z,67.44
2022-11-27T01:41:31.189Z,68.27
2022-11-27T01:44:01.760Z,67.27
2022-11-27T01:46:34.027Z,66.89
2022-11-27T01:49:17.050Z,67.62
2022-11-27T01:51:47.837Z,67.40
2022-11-27T01:54:16.980Z,67.30
2022-11-27T01:56:47.025Z,67.52
2022-11-27T01:59:18.212Z,67.25
2022-11-27T02:01:45.803Z,67.23
2022-11-27T02:04:13.977Z,67.52
2022-11-27T02:06:41.535Z,67.49
2022-11-27T02:09:08.977Z,66.97
2022-11-27T02:11:46.328Z,67.77
2022-11-27T02:14:23.847Z,66.63
2022-11-27T02:16:58.759Z,66.01
2022-11-27T02:19:42.879Z,67.43
2022-11-27T02:22:22.579Z,67.23
2022-11-27T02:25:05.865Z,68.23
2022-11-27T02:27:57.467Z,68.06
2022-11-27T02:30:26.499Z,67.56
2022-11-27T02:32:58.408Z,68.26
2022-11-27T02:35:32.533Z,68.17
2022-11-27T02:38:08.399Z,68.20
2022-11-27T02:40:42.382Z,67.87
2022-11-27T02:43:14.034Z,68.37
2022-11-27T02:45:45.763Z,67.96
2022-11-27T02:48:15.741Z,68.62
2022-11-27T02:50:45.985Z,67.64
2022-11-27T02:53:18.224Z,67.35
2022-11-27T02:55:47.582Z,67.65
2022-11-27T02:58:18.863Z,67.32
2022-11-27T03:00:48.882Z,66.35
2022-11-27T03:03:20.906Z,67.09
2022-11-27T03:05:51.584Z,66.77
2022-11-27T03:08:25.587Z,67.16
2022-11-27T03:10:58.017Z,67.80
2022-11-27T03:13:26.175Z,67.18
2022-11-27T03:16:08.435Z,67.54
2022-11-27T03:18:40.594Z,67.86
2022-11-27T03:21:19.160Z,68.15
2022-11-27T03:23:46.960Z,67.82
2022-11-27T03:26:14.493Z,68.11
2022-11-27T03:28:44.436Z,68.32
2022-11-27T03:31:13.961Z,68.58
2022-11-27T03:33:41.508Z,68.67
2022-11-27T03:36:14.702Z,68.74
2022-11-27T03:38:43.032Z,69.10
2022-11-27T03:41:18.433Z,68.92
2022-11-27T03:43:49.598Z,68.67
2022-11-27T03:46:28.517Z,68.76
2022-11-27T03:49:03.766Z,68.83
2022-11-27T03:51:40.079Z,68.97
2022-11-27T03:54:17.322Z,68.09
2022-11-27T03:56:54.198Z,67.98
2022-11-27T03:59:26.386Z,67.65
2022-11-27T04:01:55.302Z,67.73
2022-11-27T04:04:22.886Z,67.73
2022-11-27T04:06:50.450Z,67.39
2022-11-27T04:09:17.907Z,68.04
2022-11-27T04:11:45.366Z,67.60
2022-11-27T04:14:12.834Z,67.25
2022-11-27T04:16:40.367Z,67.35
2022-11-27T04:19:09.470Z,68.02
2022-11-27T04:21:36.928Z,67.50
2022-11-27T04:24:04.690Z,66.69
2022-11-27T04:26:32.165Z,66.62
2022-11-27T04:28:59.664Z,66.97
2022-11-27T04:31:27.138Z,67.11
2022-11-27T04:33:54.612Z,67.32
2022-11-27T04:36:23.407Z,67.20
2022-11-27T04:38:50.894Z,67.02
2022-11-27T04:41:18.299Z,67.35
2022-11-27T04:43:45.895Z,66.40
2022-11-27T04:46:13.437Z,66.61
2022-11-27T04:48:40.918Z,66.87
2022-11-27T04:51:08.378Z,66.84
2022-11-27T04:53:37.476Z,66.85
2022-11-27T04:56:05.541Z,66.31
2022-11-27T04:58:33.008Z,66.56
2022-11-27T05:01:00.532Z,66.82
2022-11-27T05:03:28.038Z,66.81
2022-11-27T05:05:56.354Z,66.42
2022-11-27T05:08:23.950Z,66.32
2022-11-27T05:11:01.902Z,65.99
2022-11-27T05:13:29.504Z,65.67
2022-11-27T05:15:57.336Z,65.67
2022-11-27T05:18:25.187Z,65.86
2022-11-27T05:20:58.001Z,65.60
2022-11-27T05:23:25.932Z,65.34
2022-11-27T05:25:53.755Z,65.03
2022-11-27T05:28:26.601Z,64.86
2022-11-27T05:30:55.015Z,64.44
2022-11-27T05:33:22.551Z,64.83
2022-11-27T05:35:49.986Z,63.60
2022-11-27T05:38:17.460Z,64.70
2022-11-27T05:40:44.927Z,64.57
2022-11-27T05:43:12.342Z,65.27
2022-11-27T05:45:41.166Z,64.75
2022-11-27T05:48:08.868Z,65.06
2022-11-27T05:50:36.405Z,64.98
2022-11-27T05:53:03.942Z,65.81
2022-11-27T05:55:31.398Z,65.20
2022-11-27T05:57:58.879Z,65.60
2022-11-27T06:00:27.231Z,65.19
2022-11-27T06:02:56.741Z,65.59
2022-11-27T06:05:24.387Z,65.24
2022-11-27T06:07:52.011Z,64.85
2022-11-27T06:10:19.718Z,64.20
2022-11-27T06:12:47.387Z,65.05
2022-11-27T06:15:14.933Z,65.13
2022-11-27T06:17:42.600Z,64.73
2022-11-27T06:20:12.932Z,64.97
2022-11-27T06:22:40.425Z,65.75
2022-11-27T06:25:08.428Z,65.04
2022-11-27T06:27:36.806Z,64.89
2022-11-27T06:30:05.994Z,65.04
2022-11-27T06:32:33.656Z,65.45
2022-11-27T06:35:01.249Z,66.22
2022-11-27T06:37:30.387Z,65.78
2022-11-27T06:39:58.069Z,65.22
2022-11-27T06:42:25.575Z,65.54
2022-11-27T06:44:53.016Z,65.08
2022-11-27T06:47:20.498Z,65.77
2022-11-27T06:49:47.932Z,65.28
2022-11-27T06:52:15.457Z,65.62
2022-11-27T06:54:44.251Z,65.83
2022-11-27T06:57:12.345Z,66.11
2022-11-27T06:59:39.779Z,66.07
2022-11-27T07:02:07.275Z,66.00
2022-11-27T07:04:34.747Z,66.26
2022-11-27T07:07:02.521Z,66.94
2022-11-27T07:09:29.989Z,66.23
2022-11-27T07:11:58.783Z,66.72
2022-11-27T07:14:26.250Z,66.74
2022-11-27T07:16:53.738Z,66.81
2022-11-27T07:19:21.280Z,66.61
2022-11-27T07:21:48.710Z,66.82
2022-11-27T07:24:16.176Z,66.36
2022-11-27T07:26:43.616Z,65.65
2022-11-27T07:29:12.407Z,65.53
2022-11-27T07:31:39.874Z,66.37
2022-11-27T07:34:14.045Z,65.65
2022-11-27T07:36:42.615Z,65.60
2022-11-27T07:39:10.083Z,66.19
2022-11-27T07:41:37.563Z,66.47
2022-11-27T07:44:05.345Z,66.41
2022-11-27T07:46:34.130Z,66.31
2022-11-27T07:49:01.704Z,65.88
2022-11-27T07:51:29.711Z,66.33
2022-11-27T07:53:57.259Z,66.17
2022-11-27T07:56:24.738Z,66.73
2022-11-27T07:58:52.238Z,66.53
2022-11-27T08:01:21.520Z,66.26
2022-11-27T08:03:51.276Z,65.91
2022-11-27T08:06:20.329Z,66.27
2022-11-27T08:08:48.625Z,65.85
2022-11-27T08:11:22.230Z,66.38
2022-11-27T08:13:50.774Z,65.32
2022-11-27T08:16:18.310Z,66.09
2022-11-27T08:18:45.857Z,66.01
2022-11-27T08:21:15.109Z,65.41
2022-11-27T08:23:43.614Z,64.39
2022-11-27T08:26:12.218Z,64.03
2022-11-27T08:28:40.129Z,64.52
2022-11-27T08:31:09.756Z,64.99
2022-11-27T08:33:37.691Z,64.54
2022-11-27T08:36:08.998Z,64.37
2022-11-27T08:38:40.010Z,64.61
2022-11-27T08:41:09.001Z,63.30
2022-11-27T08:43:36.837Z,64.02
2022-11-27T08:46:05.628Z,62.88
2022-11-27T08:48:33.241Z,63.15
2022-11-27T08:51:00.868Z,61.60
2022-11-27T08:53:28.302Z,61.89
2022-11-27T08:55:57.099Z,61.95
2022-11-27T08:58:24.721Z,61.08
2022-11-27T09:00:52.225Z,61.43
2022-11-27T09:03:19.696Z,61.54
2022-11-27T09:05:47.149Z,61.06
2022-11-27T09:08:20.037Z,61.22
2022-11-27T09:10:47.540Z,59.89
2022-11-27T09:13:16.350Z,59.45
2022-11-27T09:15:43.783Z,60.52
2022-11-27T09:18:11.361Z,60.15
2022-11-27T09:20:38.821Z,59.83
2022-11-27T09:23:10.132Z,59.18
2022-11-27T09:25:40.476Z,59.82
2022-11-27T09:28:07.942Z,59.43
2022-11-27T09:30:38.068Z,59.40
2022-11-27T09:33:05.512Z,59.68
2022-11-27T09:35:33.066Z,59.41
2022-11-27T09:38:00.571Z,58.64
2022-11-27T09:40:28.046Z,59.31
2022-11-27T09:43:02.086Z,60.43
2022-11-27T09:45:30.169Z,59.54
2022-11-27T09:48:05.431Z,58.86
2022-11-27T09:50:37.155Z,59.49
2022-11-27T09:53:13.832Z,59.16
2022-11-27T09:55:45.479Z,59.41
2022-11-27T09:58:17.211Z,59.35
2022-11-27T10:00:44.793Z,58.93
2022-11-27T10:03:16.976Z,58.93
2022-11-27T10:05:53.298Z,58.93
2022-11-27T10:08:33.853Z,59.52
2022-11-27T10:11:14.465Z,58.48
2022-11-27T10:13:55.822Z,58.13
2022-11-27T10:16:31.644Z,59.02
2022-11-27T10:19:08.982Z,59.05
2022-11-27T10:21:44.191Z,57.84
2022-11-27T10:24:21.941Z,58.62
2022-11-27T10:26:51.397Z,58.34
2022-11-27T10:29:31.475Z,58.21
2022-11-27T10:32:03.042Z,58.18
2022-11-27T10:34:38.324Z,58.30
2022-11-27T10:37:16.610Z,58.11
2022-11-27T10:39:50.147Z,58.40
2022-11-27T10:42:23.527Z,57.83
2022-11-27T10:44:56.013Z,57.32
2022-11-27T10:47:28.617Z,58.11
2022-11-27T10:50:02.334Z,57.72
2022-11-27T10:52:30.023Z,57.23
2022-11-27T10:55:02.243Z,57.59
2022-11-27T10:57:43.350Z,57.92
2022-11-27T11:00:15.078Z,57.21
2022-11-27T11:02:42.700Z,57.55
2022-11-27T11:05:41.022Z,57.42
2022-11-27T11:08:17.715Z,57.45
2022-11-27T11:10:52.643Z,56.23
2022-11-27T11:13:22.313Z,56.69
2022-11-27T11:15:56.777Z,57.38
2022-11-27T11:18:26.291Z,56.29
2022-11-27T11:20:58.322Z,56.03
2022-11-27T11:23:35.631Z,56.31
2022-11-27T11:26:08.513Z,55.88
2022-11-27T11:28:49.787Z,55.84
2022-11-27T11:31:20.427Z,55.59
2022-11-27T11:33:52.289Z,55.35
2022-11-27T11:36:21.262Z,55.21
2022-11-27T11:38:49.628Z,53.98
2022-11-27T11:41:18.818Z,54.38
2022-11-27T11:44:02.245Z,54.33
2022-11-27T11:46:32.011Z,54.31
2022-11-27T11:49:02.744Z,54.66
2022-11-27T11:51:45.169Z,54.06
2022-11-27T11:54:26.229Z,54.48
2022-11-27T11:56:54.220Z,54.04
2022-11-27T11:59:32.551Z,54.14
2022-11-27T12:02:23.681Z,54.19
2022-11-27T12:05:14.880Z,54.07
2022-11-27T12:08:06.118Z,54.32
2022-11-27T12:10:45.579Z,53.38
2022-11-27T12:13:27.805Z,54.52
2022-11-27T12:16:04.633Z,54.68
2022-11-27T12:18:43.504Z,54.50
2022-11-27T12:21:16.007Z,56.17
2022-11-27T12:24:01.231Z,55.56
2022-11-27T12:26:37.860Z,55.28
2022-11-27T12:29:35.694Z,56.62
2022-11-27T12:32:25.172Z,57.32
2022-11-27T12:35:04.189Z,57.27
2022-11-27T12:37:44.260Z,56.57
2022-11-27T12:40:25.659Z,57.49
2022-11-27T12:43:00.931Z,57.70
2022-11-27T12:45:30.574Z,57.57
2022-11-27T12:48:04.171Z,57.61
2022-11-27T12:50:37.693Z,59.17
2022-11-27T12:53:18.877Z,58.96
2022-11-27T12:56:04.442Z,59.64
2022-11-27T12:58:36.506Z,57.22
2022-11-27T13:01:08.703Z,57.55
2022-11-27T13:03:42.817Z,57.14
2022-11-27T13:06:14.787Z,56.49
2022-11-27T13:08:52.564Z,56.09
2022-11-27T13:11:27.084Z,55.88
2022-11-27T13:13:58.600Z,56.27
2022-11-27T13:16:31.396Z,55.42
2022-11-27T13:19:02.299Z,54.63
2022-11-27T13:21:33.452Z,54.45
2022-11-27T13:24:01.855Z,54.70
2022-11-27T13:26:36.267Z,54.22
2022-11-27T13:29:07.982Z,53.79
2022-11-27T13:31:39.361Z,53.68
2022-11-27T13:34:09.982Z,53.44
2022-11-27T13:36:40.570Z,54.34
2022-11-27T13:39:08.234Z,53.55
2022-11-27T13:41:40.807Z,54.45
2022-11-27T13:44:24.408Z,54.52
2022-11-27T13:46:54.839Z,53.66
2022-11-27T13:49:27.141Z,54.42
2022-11-27T13:52:06.435Z,53.34
2022-11-27T13:54:33.912Z,52.56
2022-11-27T13:57:12.959Z,53.11
2022-11-27T13:59:40.437Z,52.40
2022-11-27T14:02:09.022Z,52.24
2022-11-27T14:04:51.773Z,52.73
2022-11-27T14:07:25.185Z,52.11
2022-11-27T14:09:56.637Z,52.23
2022-11-27T14:12:30.365Z,53.00
2022-11-27T14:15:02.614Z,52.02
2022-11-27T14:17:36.890Z,51.71
2022-11-27T14:20:19.833Z,51.32
2022-11-27T14:23:14.851Z,51.94
2022-11-27T14:25:37.911Z,51.78
2022-11-27T14:28:15.104Z,51.36
2022-11-27T14:30:47.631Z,51.03
2022-11-27T14:33:19.573Z,50.41
2022-11-27T14:35:50.397Z,50.42
2022-11-27T14:38:19.036Z,50.24
2022-11-27T14:40:47.374Z,50.73
2022-11-27T14:43:18.941Z,50.81
2022-11-27T14:45:48.425Z,50.25
2022-11-27T14:48:25.065Z,50.28
2022-11-27T14:50:54.144Z,50.95
2022-11-27T14:53:24.480Z,51.15
2022-11-27T14:55:55.902Z,50.80
2022-11-27T14:58:27.710Z,52.35
2022-11-27T15:00:58.717Z,52.14
2022-11-27T15:03:26.591Z,52.36
2022-11-27T15:05:58.270Z,52.32
2022-11-27T15:08:26.240Z,52.50
2022-11-27T15:10:55.622Z,52.53
2022-11-27T15:13:27.821Z,52.44
2022-11-27T15:15:59.671Z,53.02
2022-11-27T15:18:28.859Z,53.81
2022-11-27T15:20:56.458Z,56.68
2022-11-27T15:23:27.758Z,56.46
2022-11-27T15:26:14.293Z,56.53
2022-11-27T15:28:52.414Z,56.27
2022-11-27T15:31:26.588Z,56.26
2022-11-27T15:34:02.327Z,56.08
2022-11-27T15:36:37.005Z,55.89
2022-11-27T15:39:16.049Z,55.25
2022-11-27T15:41:52.288Z,56.13
2022-11-27T15:44:21.599Z,55.43
2022-11-27T15:46:50.109Z,55.93
2022-11-27T15:49:17.645Z,55.50
2022-11-27T15:51:45.120Z,56.77
2022-11-27T15:54:12.584Z,55.65
2022-11-27T15:56:40.176Z,55.48
2022-11-27T15:59:07.940Z,55.63
2022-11-27T16:01:36.866Z,55.55
2022-11-27T16:04:04.888Z,54.92
2022-11-27T16:06:32.859Z,55.37
2022-11-27T16:09:02.047Z,55.21
2022-11-27T16:11:31.612Z,55.39
2022-11-27T16:13:59.116Z,55.93
2022-11-27T16:16:27.303Z,54.83
2022-11-27T16:18:59.578Z,55.58
2022-11-27T16:21:29.648Z,55.44
2022-11-27T16:23:58.743Z,55.40
2022-11-27T16:26:26.871Z,55.12
2022-11-27T16:28:54.577Z,54.66
2022-11-27T16:31:22.878Z,54.76
2022-11-27T16:33:50.525Z,55.39
2022-11-27T16:36:21.080Z,54.50
2022-11-27T16:38:49.303Z,55.27
2022-11-27T16:41:19.003Z,55.78
2022-11-27T16:43:48.138Z,54.70
2022-11-27T16:46:18.478Z,55.03
2022-11-27T16:48:47.667Z,54.91
2022-11-27T16:51:17.459Z,54.62
2022-11-27T16:53:48.348Z,54.96
2022-11-27T16:56:18.592Z,54.42
2022-11-27T16:58:48.075Z,54.63
2022-11-27T17:01:18.492Z,54.63
2022-11-27T17:03:45.992Z,54.76
2022-11-27T17:06:15.950Z,54.61
2022-11-27T17:08:44.058Z,54.27
2022-11-27T17:11:15.023Z,54.19
2022-11-27T17:13:42.552Z,54.01
2022-11-27T17:16:10.386Z,54.21
2022-11-27T17:18:39.110Z,53.97
2022-11-27T17:21:09.025Z,54.49
2022-11-27T17:23:36.541Z,55.14
2022-11-27T17:26:08.482Z,54.93
2022-11-27T17:28:37.437Z,54.81
2022-11-27T17:31:10.182Z,54.71
2022-11-27T17:33:37.773Z,55.46
2022-11-27T17:36:08.456Z,54.94
2022-11-27T17:38:36.129Z,54.44
2022-11-27T17:41:06.771Z,55.44
2022-11-27T17:43:34.236Z,55.57
2022-11-27T17:46:03.347Z,55.00
2022-11-27T17:48:30.855Z,55.44
2022-11-27T17:50:58.505Z,55.92
2022-11-27T17:53:26.213Z,55.44
2022-11-27T17:55:55.368Z,55.95
2022-11-27T17:58:22.843Z,56.11
2022-11-27T18:00:50.336Z,55.87
2022-11-27T18:03:19.322Z,55.86
2022-11-27T18:05:46.756Z,55.61
2022-11-27T18:08:14.300Z,55.58
2022-11-27T18:10:41.820Z,56.31
2022-11-27T18:13:09.341Z,55.60
2022-11-27T18:15:37.470Z,55.59
2022-11-27T18:18:05.545Z,55.50
2022-11-27T18:20:34.408Z,55.57
2022-11-27T18:23:01.923Z,55.32
2022-11-27T18:25:29.404Z,54.13
2022-11-27T18:27:57.852Z,54.58
2022-11-27T18:30:25.683Z,54.64
2022-11-27T18:32:53.149Z,54.24
2022-11-27T18:35:23.848Z,53.95
2022-11-27T18:37:52.655Z,53.71
2022-11-27T18:40:20.391Z,53.03
2022-11-27T18:42:47.885Z,53.50
2022-11-27T18:45:31.768Z,53.90
2022-11-27T18:48:00.575Z,53.56
2022-11-27T18:50:29.827Z,53.36
2022-11-27T18:52:58.869Z,53.01
2022-11-27T18:55:26.538Z,53.70
2022-11-27T18:57:54.137Z,53.23
2022-11-27T19:00:22.108Z,54.03
2022-11-27T19:02:49.597Z,53.65
2022-11-27T19:05:17.131Z,54.81
2022-11-27T19:07:44.652Z,55.11
2022-11-27T19:10:13.689Z,55.44
2022-11-27T19:12:41.180Z,56.52
2022-11-27T19:15:10.038Z,56.18
2022-11-27T19:17:37.716Z,55.73
2022-11-27T19:20:07.839Z,55.86
2022-11-27T19:22:35.539Z,55.34
2022-11-27T19:25:03.225Z,55.63
2022-11-27T19:27:32.202Z,55.60
2022-11-27T19:29:59.802Z,55.05
2022-11-27T19:32:27.255Z,54.34
2022-11-27T19:34:54.714Z,53.93
2022-11-27T19:37:34.111Z,53.27
2022-11-27T19:40:03.821Z,53.51
2022-11-27T19:42:33.307Z,53.10
2022-11-27T19:45:00.837Z,53.18
2022-11-27T19:47:28.288Z,53.15
2022-11-27T19:49:55.746Z,53.73
2022-11-27T19:52:23.465Z,53.07
2022-11-27T19:54:51.219Z,54.09
2022-11-27T19:57:18.739Z,55.05
2022-11-27T19:59:48.500Z,55.14
2022-11-27T20:02:16.021Z,53.97
2022-11-27T20:04:43.853Z,53.96
2022-11-27T20:07:11.660Z,53.92
2022-11-27T20:09:39.253Z,53.95
2022-11-27T20:12:06.948Z,53.69
2022-11-27T20:14:34.383Z,54.22
2022-11-27T20:17:03.399Z,54.46
2022-11-27T20:19:30.949Z,54.78
2022-11-27T20:21:58.423Z,53.84
2022-11-27T20:24:25.848Z,54.99
2022-11-27T20:26:53.297Z,54.68
2022-11-27T20:29:20.848Z,55.07
2022-11-27T20:31:48.608Z,55.58
2022-11-27T20:34:19.591Z,55.62
2022-11-27T20:36:47.445Z,55.69
2022-11-27T20:39:20.930Z,56.13
2022-11-27T20:41:50.754Z,55.74
2022-11-27T20:44:18.268Z,56.22
2022-11-27T20:46:45.772Z,56.62
2022-11-27T20:49:13.213Z,56.10
2022-11-27T20:51:42.142Z,56.79
2022-11-27T20:54:11.157Z,56.40
2022-11-27T20:56:38.618Z,55.75
2022-11-27T20:59:07.708Z,56.42
2022-11-27T21:01:36.847Z,56.64
2022-11-27T21:04:10.012Z,56.12
2022-11-27T21:06:43.683Z,56.13
2022-11-27T21:09:14.118Z,56.91
2022-11-27T21:11:42.240Z,56.26
2022-11-27T21:14:12.031Z,56.28
2022-11-27T21:16:42.885Z,56.70
2022-11-27T21:19:14.591Z,56.70
2022-11-27T21:21:42.060Z,57.47
2022-11-27T21:24:10.191Z,56.54
2022-11-27T21:26:39.944Z,56.35
2022-11-27T21:29:07.578Z,57.02
2022-11-27T21:31:37.688Z,56.92
2022-11-27T21:34:08.195Z,57.54
2022-11-27T21:36:37.556Z,57.53
2022-11-27T21:39:07.932Z,57.71
2022-11-27T21:41:35.777Z,57.23
2022-11-27T21:44:05.189Z,57.83
2022-11-27T21:46:35.441Z,58.49
2022-11-27T21:49:03.237Z,57.85
2022-11-27T21:51:31.698Z,58.75
2022-11-27T21:54:00.862Z,58.25
2022-11-27T21:56:31.430Z,58.13
2022-11-27T21:58:58.886Z,58.93
2022-11-27T22:01:27.768Z,57.57
2022-11-27T22:03:56.384Z,58.57
2022-11-27T22:06:26.375Z,57.50
2022-11-27T22:08:56.995Z,57.76
2022-11-27T22:11:27.549Z,57.66
2022-11-27T22:13:56.541Z,58.41
2022-11-27T22:16:25.906Z,57.77
2022-11-27T22:18:56.402Z,58.79
2022-11-27T22:21:25.687Z,58.33
2022-11-27T22:23:54.622Z,59.23
2022-11-27T22:26:23.850Z,58.43
2022-11-27T22:28:52.087Z,59.49
2022-11-27T22:31:23.062Z,59.52
2022-11-27T22:33:51.480Z,59.10
2022-11-27T22:36:23.719Z,59.84
2022-11-27T22:38:52.852Z,61.04
2022-11-27T22:41:22.018Z,61.24
2022-11-27T22:43:49.984Z,60.77
2022-11-27T22:46:20.465Z,60.39
2022-11-27T22:48:48.261Z,60.76
2022-11-27T22:51:15.696Z,59.61
2022-11-27T22:53:44.486Z,59.56
2022-11-27T22:56:13.390Z,59.46
2022-11-27T22:58:42.111Z,58.92
2022-11-27T23:01:10.995Z,59.80
2022-11-27T23:03:38.743Z,60.11
2022-11-27T23:06:11.438Z,60.40
2022-11-27T23:08:39.036Z,60.24
2022-11-27T23:11:08.717Z,60.49
2022-11-27T23:13:36.701Z,60.14
2022-11-27T23:16:05.885Z,60.78
2022-11-27T23:18:33.530Z,61.19
2022-11-27T23:21:00.979Z,61.04
2022-11-27T23:23:28.410Z,62.00
2022-11-27T23:25:55.878Z,61.73
2022-11-27T23:28:24.707Z,61.65
2022-11-27T23:31:08.736Z,62.28
2022-11-27T23:33:40.405Z,63.09
2022-11-27T23:36:08.812Z,63.13
2022-11-27T23:38:36.288Z,63.51
2022-11-27T23:41:09.629Z,64.47
2022-11-27T23:43:38.539Z,65.17
2022-11-27T23:46:07.714Z,66.49
2022-11-27T23:48:35.564Z,67.64
2022-11-27T23:51:08.350Z,68.40
2022-11-27T23:53:36.192Z,68.48
2022-11-27T23:56:04.581Z,68.67
2022-11-27T23:58:32.090Z,69.50
